createdAt,value
2023-01-25T00:00:07.643Z,9.60
2023-01-25T00:02:34.232Z,9.27
2023-01-25T00:05:00.671Z,9.15
2023-01-25T00:07:27.075Z,9.30
2023-01-25T00:09:53.438Z,9.85
2023-01-25T00:12:19.864Z,9.43
2023-01-25T00:14:46.307Z,8.10
2023-01-25T00:17:12.749Z,8.60
2023-01-25T00:19:39.132Z,9.25
2023-01-25T00:22:05.510Z,10.07
2023-01-25T00:24:31.947Z,10.18
2023-01-25T00:26:58.334Z,12.52
2023-01-25T00:29:24.722Z,10.82
2023-01-25T00:31:51.168Z,11.25
2023-01-25T00:34:17.595Z,9.90
2023-01-25T00:36:43.992Z,11.07
2023-01-25T00:39:10.389Z,9.70
2023-01-25T00:41:36.846Z,9.75
2023-01-25T00:44:03.239Z,9.30
2023-01-25T00:46:29.676Z,9.70
2023-01-25T00:48:56.136Z,9.18
2023-01-25T00:51:22.584Z,8.73
2023-01-25T00:53:49.020Z,9.23
2023-01-25T00:56:15.455Z,9.80
2023-01-25T00:58:41.889Z,10.18
2023-01-25T01:01:08.391Z,9.82
2023-01-25T01:03:34.897Z,11.95
2023-01-25T01:06:01.282Z,10.18
2023-01-25T01:08:27.715Z,11.68
2023-01-25T01:10:54.137Z,11.90
2023-01-25T01:13:20.531Z,12.10
2023-01-25T01:15:46.899Z,11.63
2023-01-25T01:18:13.324Z,11.15
2023-01-25T01:20:39.696Z,10.05
2023-01-25T01:23:06.213Z,8.77
2023-01-25T01:25:32.667Z,9.75
2023-01-25T01:27:59.087Z,9.18
2023-01-25T01:30:25.558Z,8.52
2023-01-25T01:32:52.108Z,9.93
2023-01-25T01:35:18.596Z,8.98
2023-01-25T01:37:44.963Z,9.77
2023-01-25T01:40:11.350Z,10.30
2023-01-25T01:42:37.970Z,11.55
2023-01-25T01:45:04.348Z,12.23
2023-01-25T01:47:30.759Z,10.10
2023-01-25T01:49:57.207Z,10.27
2023-01-25T01:52:23.590Z,10.45
2023-01-25T01:54:50.026Z,10.02
2023-01-25T01:57:16.428Z,10.10
2023-01-25T01:59:42.853Z,9.18
2023-01-25T02:02:09.291Z,11.13
2023-01-25T02:04:35.770Z,10.30
2023-01-25T02:07:02.156Z,12.07
2023-01-25T02:09:28.586Z,10.75
2023-01-25T02:11:54.972Z,10.68
2023-01-25T02:14:21.368Z,9.73
2023-01-25T02:16:47.798Z,11.02
2023-01-25T02:19:14.237Z,10.80
2023-01-25T02:21:40.625Z,10.20
2023-01-25T02:24:07.065Z,12.30
2023-01-25T02:26:33.560Z,12.05
2023-01-25T02:28:59.962Z,13.20
2023-01-25T02:31:26.516Z,11.55
2023-01-25T02:33:53.087Z,12.88
2023-01-25T02:36:19.509Z,11.00
2023-01-25T02:38:45.978Z,10.20
2023-01-25T02:41:12.403Z,11.18
2023-01-25T02:43:39.027Z,11.73
2023-01-25T02:46:05.464Z,11.25
2023-01-25T02:48:31.898Z,10.50
2023-01-25T02:50:58.341Z,10.50
2023-01-25T02:53:24.764Z,10.65
2023-01-25T02:55:51.352Z,9.02
2023-01-25T02:58:17.733Z,10.90
2023-01-25T03:00:44.124Z,9.85
2023-01-25T03:03:10.520Z,10.00
2023-01-25T03:05:36.976Z,10.05
2023-01-25T03:08:03.564Z,10.15
2023-01-25T03:10:29.995Z,10.27
2023-01-25T03:12:56.392Z,9.52
2023-01-25T03:15:22.769Z,8.85
2023-01-25T03:17:49.169Z,9.50
2023-01-25T03:20:15.593Z,10.85
2023-01-25T03:22:42.115Z,10.90
2023-01-25T03:25:08.921Z,10.00
2023-01-25T03:27:35.486Z,11.32
2023-01-25T03:30:01.941Z,10.52
2023-01-25T03:32:28.485Z,10.45
2023-01-25T03:34:54.937Z,10.98
2023-01-25T03:37:21.354Z,12.65
2023-01-25T03:39:47.731Z,12.75
2023-01-25T03:42:14.138Z,12.40
2023-01-25T03:44:40.525Z,10.70
2023-01-25T03:47:06.992Z,10.68
2023-01-25T03:49:33.432Z,12.75
2023-01-25T03:51:59.822Z,13.38
2023-01-25T03:54:26.267Z,12.30
2023-01-25T03:56:52.717Z,13.10
2023-01-25T03:59:19.158Z,12.02
2023-01-25T04:01:45.594Z,12.82
2023-01-25T04:04:11.998Z,11.10
2023-01-25T04:06:38.429Z,11.38
2023-01-25T04:09:04.830Z,13.00
2023-01-25T04:11:31.214Z,13.27
2023-01-25T04:13:57.628Z,12.43
2023-01-25T04:16:24.116Z,11.48
2023-01-25T04:18:50.547Z,10.90
2023-01-25T04:21:16.945Z,12.75
2023-01-25T04:23:43.431Z,12.25
2023-01-25T04:26:09.805Z,12.80
2023-01-25T04:28:36.200Z,16.95
2023-01-25T04:31:02.630Z,15.63
2023-01-25T04:33:29.035Z,13.55
2023-01-25T04:35:55.479Z,13.48
2023-01-25T04:38:21.876Z,13.52
2023-01-25T04:40:48.306Z,13.80
2023-01-25T04:43:14.766Z,10.80
2023-01-25T04:45:41.197Z,11.10
2023-01-25T04:48:07.813Z,11.90
2023-01-25T04:50:34.267Z,11.90
2023-01-25T04:53:00.697Z,13.73
2023-01-25T04:55:27.373Z,13.15
2023-01-25T04:57:53.813Z,14.40
2023-01-25T05:00:20.259Z,14.52
2023-01-25T05:02:46.735Z,15.40
2023-01-25T05:05:13.191Z,13.82
2023-01-25T05:07:39.628Z,14.20
2023-01-25T05:10:06.065Z,13.88
2023-01-25T05:12:32.447Z,15.18
2023-01-25T05:14:58.826Z,15.35
2023-01-25T05:17:25.252Z,13.82
2023-01-25T05:19:51.669Z,14.52
2023-01-25T05:22:18.100Z,12.93
2023-01-25T05:24:44.560Z,13.00
2023-01-25T05:27:10.963Z,12.68
2023-01-25T05:29:37.397Z,15.77
2023-01-25T05:32:03.832Z,15.00
2023-01-25T05:34:30.289Z,12.68
2023-01-25T05:36:56.722Z,13.85
2023-01-25T05:39:23.162Z,13.32
2023-01-25T05:41:49.642Z,13.20
2023-01-25T05:44:16.102Z,11.57
2023-01-25T05:46:42.543Z,12.63
2023-01-25T05:49:09.166Z,11.85
2023-01-25T05:51:35.567Z,11.88
2023-01-25T05:54:02.019Z,12.35
2023-01-25T05:56:28.449Z,12.13
2023-01-25T05:58:54.874Z,12.82
2023-01-25T06:01:21.318Z,11.55
2023-01-25T06:03:47.789Z,12.15
2023-01-25T06:06:14.188Z,10.82
2023-01-25T06:08:40.588Z,11.23
2023-01-25T06:11:06.965Z,11.38
2023-01-25T06:13:33.349Z,11.43
2023-01-25T06:15:59.791Z,10.15
2023-01-25T06:18:26.256Z,11.63
2023-01-25T06:20:52.719Z,10.65
2023-01-25T06:23:19.153Z,10.27
2023-01-25T06:25:45.554Z,10.43
2023-01-25T06:28:11.982Z,10.68
2023-01-25T06:30:38.432Z,10.18
2023-01-25T06:33:04.870Z,11.20
2023-01-25T06:35:31.320Z,11.10
2023-01-25T06:37:57.703Z,11.18
2023-01-25T06:40:24.137Z,10.50
2023-01-25T06:42:50.542Z,11.38
2023-01-25T06:45:16.965Z,10.05
2023-01-25T06:47:43.365Z,11.35
2023-01-25T06:50:09.744Z,11.02
2023-01-25T06:52:36.176Z,12.02
2023-01-25T06:55:02.625Z,10.27
2023-01-25T06:57:29.014Z,10.18
2023-01-25T06:59:55.397Z,10.35
2023-01-25T07:02:21.876Z,11.30
2023-01-25T07:04:48.319Z,12.45
2023-01-25T07:07:14.710Z,12.77
2023-01-25T07:09:41.100Z,12.52
2023-01-25T07:12:07.681Z,12.50
2023-01-25T07:14:34.122Z,11.13
2023-01-25T07:17:02.847Z,10.43
2023-01-25T07:19:30.165Z,11.25
2023-01-25T07:21:56.648Z,10.75
2023-01-25T07:24:23.176Z,10.93
2023-01-25T07:26:49.615Z,10.80
2023-01-25T07:29:15.997Z,10.70
2023-01-25T07:31:42.521Z,11.05
2023-01-25T07:34:08.941Z,13.77
2023-01-25T07:36:35.325Z,11.90
2023-01-25T07:39:01.710Z,13.50
2023-01-25T07:41:28.103Z,12.93
2023-01-25T07:43:54.550Z,12.80
2023-01-25T07:46:21.041Z,11.57
2023-01-25T07:48:47.477Z,14.13
2023-01-25T07:51:13.865Z,12.80
2023-01-25T07:53:40.295Z,11.95
2023-01-25T07:56:06.667Z,10.98
2023-01-25T07:58:33.104Z,11.95
2023-01-25T08:00:59.546Z,10.60
2023-01-25T08:03:25.973Z,11.68
2023-01-25T08:05:52.423Z,12.48
2023-01-25T08:08:18.881Z,12.27
2023-01-25T08:10:45.370Z,13.18
2023-01-25T08:13:11.819Z,16.83
2023-01-25T08:15:38.314Z,16.33
2023-01-25T08:18:04.696Z,13.80
2023-01-25T08:20:31.111Z,14.07
2023-01-25T08:22:57.520Z,13.55
2023-01-25T08:25:23.916Z,16.48
2023-01-25T08:27:50.310Z,15.88
2023-01-25T08:30:16.783Z,15.60
2023-01-25T08:32:43.278Z,14.55
2023-01-25T08:35:10.272Z,15.25
2023-01-25T08:37:36.849Z,16.40
2023-01-25T08:40:03.240Z,12.93
2023-01-25T08:42:29.678Z,13.55
2023-01-25T08:44:56.072Z,14.25
2023-01-25T08:47:22.509Z,13.07
2023-01-25T08:49:48.895Z,12.50
2023-01-25T08:52:15.324Z,12.02
2023-01-25T08:54:41.731Z,12.23
2023-01-25T08:57:08.302Z,11.98
2023-01-25T08:59:34.708Z,12.18
2023-01-25T09:02:01.080Z,13.10
2023-01-25T09:04:27.516Z,12.23
2023-01-25T09:06:53.956Z,14.65
2023-01-25T09:09:20.376Z,14.20
2023-01-25T09:11:46.875Z,14.65
2023-01-25T09:14:13.336Z,15.38
2023-01-25T09:16:39.990Z,13.57
2023-01-25T09:19:06.434Z,11.30
2023-01-25T09:21:32.855Z,11.13
2023-01-25T09:24:07.556Z,11.85
2023-01-25T09:26:34.404Z,10.98
2023-01-25T09:29:00.835Z,12.77
2023-01-25T09:31:30.356Z,16.17
2023-01-25T09:33:57.061Z,13.15
2023-01-25T09:36:23.423Z,12.45
2023-01-25T09:38:49.808Z,14.68
2023-01-25T09:41:16.187Z,15.13
2023-01-25T09:43:42.557Z,11.25
2023-01-25T09:46:08.957Z,11.25
2023-01-25T09:48:35.399Z,9.27
2023-01-25T09:51:01.894Z,11.82
2023-01-25T09:53:28.289Z,12.50
2023-01-25T09:55:54.755Z,14.90
2023-01-25T09:58:21.203Z,15.70
2023-01-25T10:00:47.607Z,15.52
2023-01-25T10:03:14.020Z,15.75
2023-01-25T10:05:40.434Z,19.50
2023-01-25T10:08:06.891Z,18.17
2023-01-25T10:10:33.326Z,18.27
2023-01-25T10:12:59.776Z,16.05
2023-01-25T10:15:26.230Z,17.35
2023-01-25T10:17:52.644Z,15.82
2023-01-25T10:20:19.027Z,14.65
2023-01-25T10:22:45.417Z,15.05
2023-01-25T10:25:11.871Z,15.18
2023-01-25T10:27:38.414Z,16.02
2023-01-25T10:30:04.808Z,14.85
2023-01-25T10:32:31.244Z,15.75
2023-01-25T10:34:57.856Z,15.57
2023-01-25T10:37:24.326Z,15.00
2023-01-25T10:39:50.718Z,16.60
2023-01-25T10:42:17.119Z,17.52
2023-01-25T10:44:43.528Z,15.50
2023-01-25T10:47:09.920Z,16.58
2023-01-25T10:49:36.364Z,16.92
2023-01-25T10:52:02.821Z,17.70
2023-01-25T10:54:30.293Z,15.77
2023-01-25T10:56:56.777Z,14.70
2023-01-25T10:59:23.214Z,14.90
2023-01-25T11:01:49.749Z,17.33
2023-01-25T11:04:16.175Z,16.85
2023-01-25T11:06:43.615Z,16.80
2023-01-25T11:09:09.986Z,15.55
2023-01-25T11:11:36.383Z,14.85
2023-01-25T11:14:02.773Z,11.98
2023-01-25T11:16:29.191Z,11.43
2023-01-25T11:18:55.564Z,11.32
2023-01-25T11:21:22.023Z,12.73
2023-01-25T11:23:49.270Z,14.95
2023-01-25T11:26:15.716Z,12.18
2023-01-25T11:28:42.324Z,11.73
2023-01-25T11:31:08.876Z,11.65
2023-01-25T11:33:35.393Z,11.35
2023-01-25T11:36:01.786Z,10.80
2023-01-25T11:38:28.165Z,11.98
2023-01-25T11:40:54.547Z,11.10
2023-01-25T11:43:20.929Z,12.43
2023-01-25T11:45:47.305Z,11.73
2023-01-25T11:48:13.679Z,11.43
2023-01-25T11:50:40.071Z,15.18
2023-01-25T11:53:06.445Z,13.93
2023-01-25T11:55:32.870Z,12.43
2023-01-25T11:57:59.263Z,13.65
2023-01-25T12:00:25.675Z,13.10
2023-01-25T12:02:52.215Z,15.45
2023-01-25T12:05:21.919Z,14.20
2023-01-25T12:07:48.801Z,14.80
2023-01-25T12:10:15.232Z,14.77
2023-01-25T12:12:41.668Z,14.60
2023-01-25T12:15:08.052Z,15.23
2023-01-25T12:17:34.419Z,16.10
2023-01-25T12:20:00.869Z,15.32
2023-01-25T12:22:27.274Z,20.77
2023-01-25T12:24:53.833Z,20.17
2023-01-25T12:27:20.237Z,18.27
2023-01-25T12:29:46.778Z,16.50
2023-01-25T12:32:13.155Z,15.45
2023-01-25T12:34:39.586Z,15.77
2023-01-25T12:37:06.029Z,15.80
2023-01-25T12:39:32.469Z,13.80
2023-01-25T12:41:58.898Z,14.20
2023-01-25T12:44:25.296Z,14.85
2023-01-25T12:46:51.755Z,13.63
2023-01-25T12:49:18.185Z,14.40
2023-01-25T12:51:44.638Z,13.02
2023-01-25T12:54:11.024Z,13.38
2023-01-25T12:56:37.666Z,14.38
2023-01-25T12:59:04.100Z,14.80
2023-01-25T13:01:30.529Z,14.60
2023-01-25T13:03:56.965Z,14.88
2023-01-25T13:06:23.426Z,17.10
2023-01-25T13:08:49.837Z,16.77
2023-01-25T13:11:16.215Z,17.33
2023-01-25T13:13:42.696Z,19.83
2023-01-25T13:16:09.241Z,20.48
2023-01-25T13:18:35.659Z,17.40
2023-01-25T13:21:02.024Z,16.98
2023-01-25T13:23:28.405Z,14.40
2023-01-25T13:25:54.768Z,15.38
2023-01-25T13:28:21.234Z,12.82
2023-01-25T13:30:47.669Z,11.45
2023-01-25T13:33:14.147Z,14.57
2023-01-25T13:35:40.551Z,18.42
2023-01-25T13:38:07.014Z,17.00
2023-01-25T13:40:33.464Z,18.60
2023-01-25T13:42:59.871Z,17.75
2023-01-25T13:45:26.294Z,18.95
2023-01-25T13:47:52.735Z,17.17
2023-01-25T13:50:19.144Z,15.60
2023-01-25T13:52:45.546Z,16.50
2023-01-25T13:55:12.034Z,17.50
2023-01-25T13:57:38.709Z,14.75
2023-01-25T14:00:10.921Z,12.93
2023-01-25T14:02:37.806Z,12.75
2023-01-25T14:05:04.188Z,12.90
2023-01-25T14:07:34.847Z,13.32
2023-01-25T14:10:01.302Z,17.42
2023-01-25T14:12:27.697Z,14.45
2023-01-25T14:14:54.126Z,16.88
2023-01-25T14:17:20.579Z,17.30
2023-01-25T14:19:47.041Z,16.65
2023-01-25T14:22:13.425Z,15.48
2023-01-25T14:24:39.797Z,13.70
2023-01-25T14:27:06.183Z,14.40
2023-01-25T14:29:33.496Z,15.63
2023-01-25T14:32:00.047Z,15.38
2023-01-25T14:34:26.595Z,14.98
2023-01-25T14:36:53.073Z,16.27
2023-01-25T14:39:19.510Z,21.92
2023-01-25T14:41:51.743Z,18.55
2023-01-25T14:44:26.388Z,15.77
2023-01-25T14:46:52.768Z,14.00
2023-01-25T14:49:19.222Z,14.30
2023-01-25T14:51:45.635Z,17.90
2023-01-25T14:54:12.029Z,19.13
2023-01-25T14:56:38.715Z,17.58
2023-01-25T14:59:05.115Z,17.42
2023-01-25T15:01:31.582Z,18.75
2023-01-25T15:03:57.997Z,17.05
2023-01-25T15:06:24.453Z,17.90
2023-01-25T15:08:50.890Z,16.38
2023-01-25T15:11:17.345Z,19.30
2023-01-25T15:13:43.804Z,18.95
2023-01-25T15:16:10.310Z,21.77
2023-01-25T15:18:36.776Z,17.08
2023-01-25T15:21:03.224Z,16.23
2023-01-25T15:23:29.680Z,16.17
2023-01-25T15:25:56.093Z,17.63
2023-01-25T15:28:22.506Z,17.95
2023-01-25T15:30:48.924Z,18.42
2023-01-25T15:33:15.509Z,17.73
2023-01-25T15:35:41.898Z,15.15
2023-01-25T15:38:08.460Z,14.95
2023-01-25T15:40:34.889Z,14.38
2023-01-25T15:43:01.268Z,21.83
2023-01-25T15:45:27.689Z,20.85
2023-01-25T15:47:54.121Z,21.52
2023-01-25T15:50:20.568Z,20.52
2023-01-25T15:52:46.957Z,18.55
2023-01-25T15:55:13.346Z,16.75
2023-01-25T15:57:39.712Z,21.45
2023-01-25T16:00:06.176Z,20.85
2023-01-25T16:02:32.624Z,19.20
2023-01-25T16:04:59.103Z,19.13
2023-01-25T16:07:25.568Z,17.13
2023-01-25T16:09:52.014Z,16.23
2023-01-25T16:12:18.414Z,17.30
2023-01-25T16:14:44.805Z,15.43
2023-01-25T16:17:11.270Z,15.18
2023-01-25T16:19:37.886Z,17.80
2023-01-25T16:22:04.333Z,18.33
2023-01-25T16:24:30.791Z,20.30
2023-01-25T16:26:57.179Z,23.83
2023-01-25T16:29:23.597Z,24.08
2023-01-25T16:31:50.176Z,24.13
2023-01-25T16:34:16.653Z,24.20
2023-01-25T16:36:43.299Z,24.35
2023-01-25T16:39:09.777Z,25.80
2023-01-25T16:41:36.304Z,26.95
2023-01-25T16:44:02.750Z,25.65
2023-01-25T16:46:29.235Z,29.42
2023-01-25T16:48:55.611Z,29.67
2023-01-25T16:51:22.046Z,25.88
2023-01-25T16:53:48.482Z,25.33
2023-01-25T16:56:14.912Z,27.40
2023-01-25T16:58:41.281Z,26.67
2023-01-25T17:01:07.872Z,25.77
2023-01-25T17:03:34.298Z,25.63
2023-01-25T17:06:00.748Z,24.80
2023-01-25T17:08:27.213Z,23.35
2023-01-25T17:10:53.603Z,25.73
2023-01-25T17:13:20.036Z,23.92
2023-01-25T17:15:46.513Z,28.58
2023-01-25T17:18:12.948Z,24.48
2023-01-25T17:20:39.334Z,23.88
2023-01-25T17:23:05.785Z,24.23
2023-01-25T17:25:32.172Z,20.65
2023-01-25T17:27:58.633Z,18.92
2023-01-25T17:30:25.029Z,18.23
2023-01-25T17:32:51.478Z,18.77
2023-01-25T17:35:17.927Z,16.48
2023-01-25T17:37:44.391Z,14.70
2023-01-25T17:40:11.322Z,15.50
2023-01-25T17:42:37.949Z,17.05
2023-01-25T17:45:04.342Z,16.40
2023-01-25T17:47:30.788Z,15.63
2023-01-25T17:49:57.227Z,15.75
2023-01-25T17:52:23.598Z,16.65
2023-01-25T17:54:50.040Z,14.95
2023-01-25T17:57:16.465Z,16.20
2023-01-25T17:59:42.851Z,14.23
2023-01-25T18:02:09.239Z,13.35
2023-01-25T18:04:35.671Z,14.45
2023-01-25T18:07:02.100Z,14.10
2023-01-25T18:09:28.596Z,14.10
2023-01-25T18:11:55.002Z,15.40
2023-01-25T18:14:21.435Z,14.65
2023-01-25T18:16:47.855Z,17.13
2023-01-25T18:19:14.238Z,21.42
2023-01-25T18:21:40.679Z,19.08
2023-01-25T18:24:07.138Z,18.30
2023-01-25T18:26:33.570Z,18.27
2023-01-25T18:28:59.978Z,17.83
2023-01-25T18:31:26.504Z,17.25
2023-01-25T18:33:53.010Z,16.60
2023-01-25T18:36:19.390Z,16.35
2023-01-25T18:38:45.757Z,14.52
2023-01-25T18:41:12.128Z,15.55
2023-01-25T18:43:38.511Z,15.88
2023-01-25T18:46:04.970Z,14.93
2023-01-25T18:48:31.388Z,12.45
2023-01-25T18:50:57.802Z,16.30
2023-01-25T18:53:24.265Z,17.65
2023-01-25T18:55:50.716Z,17.63
2023-01-25T18:58:17.115Z,20.88
2023-01-25T19:00:43.504Z,21.17
2023-01-25T19:03:09.883Z,22.33
2023-01-25T19:05:37.976Z,21.02
2023-01-25T19:08:04.546Z,18.88
2023-01-25T19:10:30.958Z,18.13
2023-01-25T19:12:57.350Z,18.10
2023-01-25T19:15:23.830Z,16.58
2023-01-25T19:17:50.356Z,17.27
2023-01-25T19:20:16.806Z,17.40
2023-01-25T19:22:43.181Z,17.85
2023-01-25T19:25:09.843Z,14.57
2023-01-25T19:27:36.446Z,15.90
2023-01-25T19:30:02.864Z,17.13
2023-01-25T19:32:29.294Z,17.00
2023-01-25T19:34:55.723Z,15.93
2023-01-25T19:37:22.177Z,15.15
2023-01-25T19:39:48.649Z,15.63
2023-01-25T19:42:16.711Z,16.10
2023-01-25T19:44:44.164Z,16.23
2023-01-25T19:47:10.584Z,16.27
2023-01-25T19:49:37.022Z,17.50
2023-01-25T19:52:03.456Z,16.23
2023-01-25T19:54:29.885Z,15.38
2023-01-25T19:56:56.359Z,15.40
2023-01-25T19:59:22.796Z,17.88
2023-01-25T20:01:49.448Z,16.05
2023-01-25T20:04:15.885Z,17.38
2023-01-25T20:06:42.271Z,17.38
2023-01-25T20:09:08.696Z,17.23
2023-01-25T20:11:35.272Z,17.92
2023-01-25T20:14:01.706Z,19.40
2023-01-25T20:16:28.257Z,17.20
2023-01-25T20:18:54.727Z,18.08
2023-01-25T20:21:21.090Z,16.40
2023-01-25T20:23:47.577Z,16.38
2023-01-25T20:26:13.993Z,18.55
2023-01-25T20:28:40.448Z,19.15
2023-01-25T20:31:06.865Z,21.05
2023-01-25T20:33:33.353Z,18.70
2023-01-25T20:35:59.775Z,21.02
2023-01-25T20:38:26.154Z,19.00
2023-01-25T20:40:52.595Z,18.45
2023-01-25T20:43:19.045Z,18.20
2023-01-25T20:45:45.635Z,17.13
2023-01-25T20:48:12.056Z,18.40
2023-01-25T20:50:38.471Z,17.58
2023-01-25T20:53:04.854Z,20.02
2023-01-25T20:55:31.259Z,19.52
2023-01-25T20:57:57.666Z,20.85
2023-01-25T21:00:24.059Z,19.73
2023-01-25T21:02:50.509Z,19.42
2023-01-25T21:05:16.937Z,18.23
2023-01-25T21:07:43.387Z,19.58
2023-01-25T21:10:09.830Z,19.48
2023-01-25T21:12:36.279Z,19.58
2023-01-25T21:15:02.737Z,18.45
2023-01-25T21:17:29.205Z,18.05
2023-01-25T21:19:55.651Z,16.25
2023-01-25T21:22:22.145Z,17.73
2023-01-25T21:24:48.625Z,18.45
2023-01-25T21:27:15.083Z,18.15
2023-01-25T21:29:41.718Z,17.85
2023-01-25T21:32:08.159Z,20.50
2023-01-25T21:34:34.556Z,20.23
2023-01-25T21:37:01.012Z,20.48
2023-01-25T21:39:27.483Z,20.88
2023-01-25T21:41:53.868Z,20.90
2023-01-25T21:44:20.281Z,21.80
2023-01-25T21:47:12.405Z,18.13
2023-01-25T21:49:33.165Z,19.88
2023-01-25T21:51:59.599Z,18.30
2023-01-25T21:54:25.999Z,19.60
2023-01-25T21:56:52.442Z,18.60
2023-01-25T21:59:18.863Z,16.92
2023-01-25T22:01:46.018Z,17.77
2023-01-25T22:04:12.448Z,17.80
2023-01-25T22:06:38.847Z,17.48
2023-01-25T22:09:05.222Z,17.15
2023-01-25T22:11:31.613Z,17.90
2023-01-25T22:13:58.021Z,17.13
2023-01-25T22:16:24.446Z,17.13
2023-01-25T22:18:50.878Z,19.48
2023-01-25T22:21:17.272Z,16.83
2023-01-25T22:23:43.723Z,18.25
2023-01-25T22:26:10.148Z,19.35
2023-01-25T22:28:36.540Z,18.63
2023-01-25T22:31:02.981Z,17.75
2023-01-25T22:33:29.390Z,18.38
2023-01-25T22:35:55.755Z,19.42
2023-01-25T22:38:22.119Z,19.50
2023-01-25T22:40:48.554Z,17.15
2023-01-25T22:43:14.939Z,18.77
2023-01-25T22:45:41.315Z,17.13
2023-01-25T22:48:07.726Z,18.25
2023-01-25T22:50:34.166Z,17.42
2023-01-25T22:53:00.545Z,21.83
2023-01-25T22:55:26.939Z,19.17
2023-01-25T22:57:53.347Z,19.60
2023-01-25T23:00:19.803Z,22.42
2023-01-25T23:02:46.247Z,20.70
2023-01-25T23:05:12.617Z,21.80
2023-01-25T23:07:38.995Z,21.67
2023-01-25T23:10:05.409Z,20.08
2023-01-25T23:12:31.838Z,18.77
2023-01-25T23:14:58.265Z,18.25
2023-01-25T23:17:24.680Z,19.40
2023-01-25T23:19:51.103Z,19.30
2023-01-25T23:22:17.538Z,18.67
2023-01-25T23:24:43.967Z,21.40
2023-01-25T23:27:10.404Z,20.08
2023-01-25T23:29:36.805Z,21.27
2023-01-25T23:32:03.213Z,18.52
2023-01-25T23:34:29.611Z,17.95
2023-01-25T23:36:56.017Z,18.85
2023-01-25T23:39:22.451Z,18.02
2023-01-25T23:41:48.840Z,16.45
2023-01-25T23:44:15.298Z,16.92
2023-01-25T23:46:41.754Z,17.50
2023-01-25T23:49:08.223Z,17.67
2023-01-25T23:51:34.646Z,19.42
2023-01-25T23:54:01.036Z,17.70
2023-01-25T23:56:27.464Z,16.60
2023-01-25T23:58:53.861Z,14.88
